Schuler, Canada
Current Conditions -  °F | °C
As of 9:00 AM on Wednesday 22 Oct 2014 (Local Time) from CYXH Reporting Station
Few Clouds Few Clouds  
Wind Chill: 37°   Ceiling: Unl
Heat Index: 43°   Visibility: 30mi
Dew Point: 36°   Wind: 9mph
Humidity: 76%   Direction: 220°SW
Pressure: 29.82"   Gusts: NA
Location:  50.37°N, 110.09°W
Report Text: CYXH 221500Z 22008KT 30SM FEW150 06/02 A2982 RMK AC1 SLP109
Loading
Personal Weather Stations






























Interactive Weather Map
Tropical Storm Tracking
New forecast layout! Learn more

10-Day Weather Forecast

Advertisements
Track Severe Weather on mobile